Time;durP1;ratioP1;P1;durP2;ratioP2;P2;SDS_P1;SDS_P2;PMS_P1;PMS_P2;Temp;Humidity;BMP_temperature;BMP_pressure;BME280_temperature;BME280_humidity;BME280_pressure;Samples;Min_cycle;Max_cycle;Signal;HPM_P1;HPM_P2
2021/03/22 00:00:27;;;;;;;29.05;5.22;;;7.30;78.10;;;7.51;64.38;101281.69;5084297;28;20572;-82
2021/03/22 00:02:54;;;;;;;25.15;3.83;;;7.20;78.40;;;7.50;63.66;101280.00;5082922;28;20044;-82
2021/03/22 00:05:22;;;;;;;24.95;4.85;;;7.20;78.20;;;7.54;63.50;101280.53;5084725;28;20037;-82
2021/03/22 00:07:50;;;;;;;24.17;4.68;;;7.30;77.90;;;7.50;64.15;101280.00;5084304;28;20058;-82
2021/03/22 00:10:19;;;;;;;19.27;4.45;;;7.20;78.30;;;7.52;63.87;101286.13;5085069;28;20071;-83
2021/03/22 00:12:47;;;;;;;26.00;4.28;;;7.20;78.60;;;7.51;64.20;101284.41;5083673;28;20051;-82
2021/03/22 00:15:17;;;;;;;21.08;3.70;;;7.20;78.50;;;7.50;64.47;101284.53;5083501;28;20063;-82
2021/03/22 00:17:44;;;;;;;29.15;4.40;;;7.20;79.10;;;7.48;65.03;101286.56;5084402;28;20052;-82
2021/03/22 00:20:13;;;;;;;26.88;3.95;;;7.20;79.30;;;7.50;64.72;101284.53;5082796;28;20044;-82
2021/03/22 00:22:40;;;;;;;26.95;4.78;;;7.20;79.00;;;7.48;64.84;101278.44;5084797;28;20048;-82
2021/03/22 00:25:09;;;;;;;28.25;5.53;;;7.10;79.20;;;7.40;64.65;101280.00;5084418;28;20089;-82
2021/03/22 00:27:36;;;;;;;21.27;3.78;;;7.10;79.80;;;7.41;64.73;101278.16;5084622;28;20135;-82
2021/03/22 00:30:05;;;;;;;23.55;4.53;;;7.10;79.60;;;7.41;64.67;101276.31;5085060;28;20052;-82
2021/03/22 00:32:32;;;;;;;23.27;4.40;;;7.10;79.60;;;7.42;64.56;101275.31;5082765;28;20049;-82
2021/03/22 00:35:00;;;;;;;24.48;4.05;;;7.10;79.60;;;7.40;65.47;101274.59;5078160;28;20471;-83
2021/03/22 00:37:27;;;;;;;25.63;3.80;;;7.10;80.00;;;7.37;65.63;101280.31;5082149;28;20051;-82
2021/03/22 00:39:54;;;;;;;23.63;4.20;;;7.10;80.10;;;7.41;64.81;101268.19;5082079;28;20052;-82
2021/03/22 00:42:20;;;;;;;24.35;3.67;;;7.10;80.10;;;7.43;65.18;101265.34;5083111;28;20044;-82
2021/03/22 00:44:47;;;;;;;21.25;4.18;;;7.10;80.30;;;7.46;65.16;101266.88;5082625;28;20052;-83
2021/03/22 00:47:14;;;;;;;29.23;4.43;;;7.10;80.10;;;7.41;65.20;101264.63;5081923;28;20379;-82
2021/03/22 00:49:41;;;;;;;24.45;4.18;;;7.10;80.30;;;7.36;65.76;101256.91;5080903;28;20046;-82
2021/03/22 00:52:11;;;;;;;28.38;4.22;;;7.10;80.70;;;7.38;66.28;101260.34;5083168;28;20052;-82
2021/03/22 00:54:39;;;;;;;20.20;4.57;;;7.10;80.70;;;7.36;65.76;101256.91;5079842;28;20105;-82
2021/03/22 00:57:08;;;;;;;23.65;4.50;;;7.10;80.70;;;7.42;65.55;101256.38;5084360;28;20048;-83
2021/03/22 00:59:35;;;;;;;31.02;4.70;;;7.10;80.50;;;7.38;66.35;101259.50;5080043;28;20059;-82
2021/03/22 01:02:04;;;;;;;30.67;5.00;;;7.10;80.70;;;7.36;65.75;101256.06;5083687;28;20040;-82
2021/03/22 01:04:31;;;;;;;31.20;5.30;;;7.10;81.00;;;7.35;66.30;101263.34;5082317;28;20053;-82
2021/03/22 01:06:58;;;;;;;25.42;4.57;;;7.10;80.80;;;7.37;66.54;101257.81;5081959;28;20048;-82
2021/03/22 01:09:26;;;;;;;27.25;4.00;;;7.10;80.90;;;7.34;66.20;101256.22;5083897;28;20045;-82
2021/03/22 01:11:53;;;;;;;31.67;4.72;;;7.10;81.10;;;7.32;66.50;101252.81;5085293;28;20127;-82
2021/03/22 01:14:19;;;;;;;28.13;4.70;;;7.10;81.30;;;7.33;66.82;101251.81;5086737;28;20040;-82
2021/03/22 01:16:47;;;;;;;33.67;4.95;;;7.10;81.30;;;7.29;67.09;101253.13;5085703;28;20072;-82
2021/03/22 01:19:18;;;;;;;33.40;4.28;;;7.10;81.40;;;7.32;66.83;101250.09;5084726;28;20065;-82
2021/03/22 01:21:47;;;;;;;29.05;4.15;;;7.10;81.50;;;7.33;66.99;101245.53;5088388;28;20083;-82
2021/03/22 01:24:16;;;;;;;27.38;5.45;;;7.10;81.50;;;7.33;66.64;101246.41;5086087;28;20048;-82
2021/03/22 01:26:44;;;;;;;33.90;4.88;;;7.00;81.60;;;7.31;67.04;101243.00;5088578;28;20040;-82
2021/03/22 01:29:17;;;;;;;20.65;3.70;;;7.10;82.00;;;7.32;67.23;101236.56;5085151;28;20508;-82
2021/03/22 01:31:45;;;;;;;25.50;4.78;;;7.10;81.90;;;7.31;67.12;101243.00;5083553;28;20331;-82
2021/03/22 01:34:12;;;;;;;26.60;3.97;;;7.10;81.80;;;7.31;67.25;101232.16;5084330;28;20055;-82
2021/03/22 01:36:39;;;;;;;31.13;4.15;;;7.10;81.90;;;7.29;66.94;101245.00;5084972;28;20063;-82
2021/03/22 01:39:13;;;;;;;22.90;4.57;;;7.10;82.10;;;7.32;66.63;101228.44;5084750;28;20079;-82
2021/03/22 01:42:22;;;;;;;24.80;4.03;;;7.10;81.90;;;7.32;67.81;101233.00;5086956;28;20145;-82
2021/03/22 01:44:55;;;;;;;26.80;4.05;;;7.00;82.20;;;7.27;67.32;101233.41;5086917;28;20052;-82
2021/03/22 01:47:25;;;;;;;26.02;3.90;;;7.00;82.10;;;7.24;67.59;101231.03;5085449;28;20040;-82
2021/03/22 01:49:57;;;;;;;22.80;4.10;;;6.90;82.20;;;7.26;67.70;101220.91;5082392;28;20584;-82
2021/03/22 01:52:26;;;;;;;25.10;4.45;;;7.00;82.40;;;7.26;67.06;101228.19;5084062;28;20044;-82
2021/03/22 01:54:54;;;;;;;32.83;4.85;;;7.00;82.20;;;7.26;67.33;101233.59;5087513;28;20040;-82
2021/03/22 01:57:31;;;;;;;33.42;5.03;;;7.00;82.30;;;7.24;67.62;101228.31;5085653;28;20052;-82
2021/03/22 02:00:17;;;;;;;24.45;3.88;;;7.00;82.40;;;7.21;67.69;101231.31;5084344;28;20063;-82
2021/03/22 02:02:46;;;;;;;26.58;3.92;;;7.00;82.80;;;7.21;68.30;101226.72;5088033;28;20055;-82
2021/03/22 02:05:18;;;;;;;21.85;3.63;;;7.00;82.80;;;7.23;67.50;101229.31;5086507;28;20055;-82
2021/03/22 02:07:51;;;;;;;24.80;4.35;;;6.90;82.90;;;7.20;67.95;101224.19;5086155;28;20406;-82
2021/03/22 02:10:19;;;;;;;15.05;3.55;;;6.90;82.90;;;7.16;67.77;101229.03;5084537;28;20492;-82
2021/03/22 02:12:47;;;;;;;24.85;3.78;;;6.90;82.80;;;7.17;68.10;101222.63;5086508;28;20048;-82
2021/03/22 02:15:14;;;;;;;31.10;3.60;;;6.90;82.70;;;7.19;67.89;101225.19;5085779;28;20093;-82
2021/03/22 02:18:04;;;;;;;28.75;3.92;;;7.00;82.70;;;7.18;67.64;101231.63;5086333;28;20075;-82
2021/03/22 02:21:38;;;;;;;22.30;4.55;;;6.90;83.00;;;7.21;68.15;101226.72;5083254;28;20379;-82
2021/03/22 02:24:51;;;;;;;19.98;3.60;;;7.00;82.90;;;7.20;67.86;101230.47;5086589;28;20493;-82
2021/03/22 02:27:56;;;;;;;30.38;4.35;;;7.00;83.20;;;7.17;68.53;101229.88;5086205;28;20454;-82
2021/03/22 02:30:56;;;;;;;18.52;3.53;;;7.00;83.40;;;7.22;69.00;101230.31;5086416;28;20036;-82
2021/03/22 02:33:59;;;;;;;31.95;3.92;;;7.00;83.50;;;7.20;68.93;101235.03;5096747;28;20049;-82
2021/03/22 02:36:34;;;;;;;27.13;4.85;;;7.00;83.70;;;7.22;69.26;101238.44;5087239;28;20040;-82
2021/03/22 02:39:03;;;;;;;19.52;4.20;;;7.00;83.80;;;7.24;68.71;101236.44;5083024;28;20547;-82
2021/03/22 02:41:38;;;;;;;31.85;4.63;;;7.00;83.90;;;7.20;69.29;101226.91;5087234;28;20054;-82
2021/03/22 02:44:09;;;;;;;23.83;4.72;;;7.00;84.00;;;7.20;69.13;101229.63;5086015;28;20050;-82
2021/03/22 02:46:38;;;;;;;28.40;4.78;;;7.00;84.10;;;7.20;69.31;101237.72;5081345;28;20398;-83
2021/03/22 02:49:14;;;;;;;24.15;5.35;;;7.00;84.20;;;7.22;69.15;101239.28;5083118;28;20040;-82
2021/03/22 02:51:57;;;;;;;29.67;6.10;;;7.00;84.20;;;7.24;69.16;101231.03;5083189;28;20044;-82
2021/03/22 02:54:38;;;;;;;25.15;5.72;;;7.00;84.20;;;7.24;69.12;101225.59;5086416;28;20105;-82
2021/03/22 02:57:12;;;;;;;25.42;5.85;;;7.00;84.00;;;7.24;69.36;101228.31;5082621;28;20049;-82
2021/03/22 02:59:46;;;;;;;24.65;6.20;;;7.00;84.00;;;7.20;68.95;101218.78;5080502;28;20048;-82
2021/03/22 03:02:14;;;;;;;25.80;5.97;;;7.00;84.10;;;7.20;69.28;101224.19;5084203;28;20552;-82
2021/03/22 03:04:44;;;;;;;29.23;5.97;;;7.00;84.40;;;7.22;69.34;101230.31;5084425;28;20387;-82
2021/03/22 03:07:19;;;;;;;24.58;5.65;;;7.00;84.30;;;7.19;69.19;101238.72;5084309;28;20051;-82
2021/03/22 03:09:46;;;;;;;27.52;6.68;;;6.90;84.40;;;7.20;69.25;101224.19;5082582;28;20044;-82
2021/03/22 03:12:18;;;;;;;28.70;6.57;;;6.90;84.60;;;7.17;69.29;101224.47;5085325;28;20041;-82
2021/03/22 03:14:49;;;;;;;21.13;6.35;;;6.90;84.80;;;7.18;70.11;101226.19;5084292;28;20055;-82
2021/03/22 03:17:16;;;;;;;29.08;5.97;;;7.10;85.00;;;7.20;69.74;101235.03;5083372;28;20522;-82
2021/03/22 03:19:45;;;;;;;22.02;5.68;;;7.00;84.80;;;7.20;69.47;101227.75;5084859;28;20051;-82
2021/03/22 03:22:12;;;;;;;29.10;5.93;;;6.90;84.90;;;7.19;70.04;101223.31;5082201;28;20045;-82
2021/03/22 03:24:41;;;;;;;24.70;5.80;;;6.90;84.90;;;7.17;70.14;101227.19;5079623;28;20101;-82
2021/03/22 03:27:09;;;;;;;26.52;5.18;;;6.90;84.90;;;7.17;70.06;101227.19;5083068;28;20042;-82
2021/03/22 03:29:36;;;;;;;26.25;5.40;;;6.90;85.10;;;7.17;70.23;101236.16;5086380;28;20058;-82
2021/03/22 03:32:03;;;;;;;27.10;6.03;;;6.90;85.00;;;7.16;69.34;101230.88;5080814;28;20107;-82
2021/03/22 03:34:30;;;;;;;18.02;4.47;;;6.90;84.90;;;7.15;69.56;101234.59;5084081;28;20043;-82
2021/03/22 03:36:58;;;;;;;26.73;4.90;;;6.90;85.00;;;7.14;69.92;101236.47;5085198;28;20032;-82
2021/03/22 03:39:24;;;;;;;20.48;4.47;;;6.90;85.00;;;7.15;70.00;101242.72;5082772;28;20044;-82
2021/03/22 03:41:51;;;;;;;21.30;4.95;;;6.90;85.20;;;7.13;69.69;101233.88;5084549;28;20048;-82
2021/03/22 03:44:18;;;;;;;27.42;4.80;;;6.90;85.30;;;7.11;70.11;101228.63;5081726;28;20498;-82
2021/03/22 03:46:45;;;;;;;22.85;4.57;;;6.80;85.30;;;7.13;70.56;101239.31;5084873;28;20589;-82
2021/03/22 03:49:12;;;;;;;18.17;5.18;;;6.90;85.40;;;7.13;69.37;101233.88;5081533;28;20090;-82
2021/03/22 03:51:39;;;;;;;19.60;4.88;;;6.90;85.00;;;7.14;69.66;101236.47;5083346;28;20055;-82
2021/03/22 03:54:10;;;;;;;21.30;4.90;;;6.80;84.80;;;7.13;69.61;101233.88;5082638;28;20086;-82
2021/03/22 03:56:38;;;;;;;20.63;4.63;;;6.80;85.20;;;7.11;70.40;101236.72;5086610;28;20040;-82
2021/03/22 03:59:06;;;;;;;24.13;5.38;;;6.80;85.40;;;7.12;69.94;101245.69;5084854;28;20603;-82
2021/03/22 04:01:35;;;;;;;23.85;5.20;;;6.80;85.30;;;7.09;70.36;101235.19;5085897;28;20048;-82
2021/03/22 04:04:02;;;;;;;27.38;5.18;;;6.90;85.30;;;7.14;70.26;101243.69;5081698;28;20410;-83
2021/03/22 04:06:32;;;;;;;24.20;5.28;;;6.90;85.30;;;7.12;69.89;101237.56;5082610;28;20043;-82
2021/03/22 04:09:03;;;;;;;31.13;5.72;;;6.80;85.30;;;7.09;70.03;101241.44;5080989;28;20490;-82
2021/03/22 04:11:34;;;;;;;29.23;5.93;;;6.80;85.40;;;7.10;70.24;101240.47;5083952;28;20502;-82
2021/03/22 04:14:03;;;;;;;28.23;5.63;;;6.80;85.60;;;7.09;70.00;101237.88;5084353;28;20044;-82
2021/03/22 04:16:31;;;;;;;26.00;5.75;;;6.80;85.60;;;7.07;70.25;101242.59;5082435;28;20040;-82
2021/03/22 04:18:58;;;;;;;22.42;5.75;;;6.80;85.70;;;7.04;70.67;101247.28;5081956;28;20054;-82
2021/03/22 04:21:30;;;;;;;26.95;6.40;;;6.80;85.70;;;7.05;70.52;101246.28;5084916;28;20687;-81
2021/03/22 04:23:59;;;;;;;24.92;6.85;;;6.70;85.80;;;7.07;70.62;101245.31;5078522;28;20062;-82
2021/03/22 04:26:26;;;;;;;21.60;6.25;;;6.80;85.80;;;7.06;70.48;101249.84;5082480;28;20048;-82
2021/03/22 04:28:54;;;;;;;29.38;6.82;;;6.80;85.80;;;6.99;70.41;101244.16;5083635;28;20618;-82
2021/03/22 04:31:24;;;;;;;24.98;7.40;;;6.70;86.00;;;6.99;70.35;101249.56;5076199;28;20048;-82
2021/03/22 04:33:52;;;;;;;25.92;5.55;;;6.70;86.00;;;6.99;70.49;101251.44;5064917;28;20062;-82
2021/03/22 04:36:21;;;;;;;24.80;6.25;;;6.70;86.20;;;7.00;70.57;101251.25;5083173;28;20055;-82
2021/03/22 04:38:48;;;;;;;30.30;7.45;;;6.70;86.40;;;7.03;71.45;101247.44;5079022;28;20040;-82
2021/03/22 04:41:15;;;;;;;27.80;7.05;;;6.70;86.60;;;6.99;71.03;101254.13;5081106;28;20143;-82
2021/03/22 04:43:42;;;;;;;26.48;6.70;;;6.70;86.90;;;6.98;71.90;101247.84;5081387;28;20109;-82
2021/03/22 04:46:10;;;;;;;34.22;7.10;;;6.70;87.30;;;7.03;71.83;101251.00;5083722;28;20067;-82
2021/03/22 04:48:37;;;;;;;25.00;6.40;;;6.70;87.40;;;7.01;71.74;101257.56;5086078;28;20040;-82
2021/03/22 04:51:05;;;;;;;28.92;7.57;;;6.70;87.70;;;6.98;72.09;101258.66;5084949;28;20303;-82
2021/03/22 04:53:32;;;;;;;24.50;6.60;;;6.70;88.30;;;7.00;72.96;101261.25;5083620;28;20045;-82
2021/03/22 04:55:59;;;;;;;36.47;8.23;;;6.70;88.50;;;6.97;72.80;101262.38;5087922;28;20089;-82
2021/03/22 04:58:26;;;;;;;30.58;7.30;;;6.70;88.80;;;6.97;72.96;101273.22;5087412;28;20044;-82
2021/03/22 05:00:52;;;;;;;31.52;7.78;;;6.60;88.90;;;6.97;73.55;101262.38;5086297;28;20454;-82
2021/03/22 05:03:22;;;;;;;31.65;7.90;;;6.70;89.20;;;6.97;73.52;101259.69;5086779;28;20048;-82
2021/03/22 05:05:50;;;;;;;29.88;8.60;;;6.60;89.60;;;6.92;73.67;101253.00;5086089;28;20044;-82
2021/03/22 05:08:20;;;;;;;21.85;7.68;;;6.60;89.70;;;6.87;73.76;101253.41;5089683;28;20052;-82
2021/03/22 05:10:50;;;;;;;33.20;8.80;;;6.60;90.00;;;6.85;73.62;101256.28;5087370;28;20067;-82
2021/03/22 05:13:20;;;;;;;31.58;8.63;;;6.50;90.20;;;6.83;73.80;101254.69;5086396;28;20136;-82
2021/03/22 05:15:47;;;;;;;27.83;7.95;;;6.50;90.20;;;6.80;74.17;101255.00;5083535;28;20047;-82
2021/03/22 05:18:15;;;;;;;34.78;9.30;;;6.40;90.30;;;6.83;73.57;101251.97;5084291;28;20510;-82
2021/03/22 05:20:50;;;;;;;29.10;7.97;;;6.40;90.40;;;6.83;74.33;101260.09;5084537;28;20047;-82
2021/03/22 05:23:20;;;;;;;32.50;9.07;;;6.40;90.50;;;6.82;74.56;101255.69;5081642;28;20055;-82
2021/03/22 05:25:47;;;;;;;32.97;8.52;;;6.40;90.70;;;6.83;74.36;101260.09;5085835;28;20095;-82
2021/03/22 05:28:15;;;;;;;30.88;8.13;;;6.40;90.50;;;6.84;74.17;101261.81;5085774;28;20056;-83
2021/03/22 05:30:42;;;;;;;32.05;9.07;;;6.40;90.80;;;6.87;74.36;101263.38;5084854;28;20056;-82
2021/03/22 05:33:11;;;;;;;28.35;8.73;;;6.50;91.00;;;6.88;74.60;101267.81;5084524;28;20425;-81
2021/03/22 05:35:39;;;;;;;32.60;8.50;;;6.50;90.80;;;6.87;74.45;101269.63;5088761;28;20044;-85
2021/03/22 05:38:08;;;;;;;24.98;7.80;;;6.50;90.90;;;6.85;74.81;101274.34;5085833;28;20069;-85
2021/03/22 05:40:40;;;;;;;36.17;10.55;;;6.50;91.10;;;6.86;74.22;101265.22;5085623;28;20043;-85
2021/03/22 05:43:21;;;;;;;33.92;10.35;;;6.50;91.10;;;6.87;74.60;101266.09;5089432;28;20036;-85
2021/03/22 05:46:03;;;;;;;32.08;10.52;;;6.50;91.00;;;6.89;74.49;101264.09;5080368;28;20040;-84
2021/03/22 05:48:59;;;;;;;40.42;10.55;;;6.50;91.10;;;6.88;74.88;101260.53;5089346;28;20036;-85
2021/03/22 05:51:57;;;;;;;29.15;10.70;;;6.50;91.10;;;6.86;75.09;101257.13;5075251;28;20529;-84
2021/03/22 05:55:03;;;;;;;34.17;10.70;;;6.50;91.20;;;6.86;74.86;101257.13;5082475;28;20053;-85
2021/03/22 05:58:05;;;;;;;30.90;11.05;;;6.50;91.60;;;6.87;75.50;101257.97;5081088;28;20048;-85
2021/03/22 06:00:44;;;;;;;;;;;6.50;91.40;;;6.84;75.24;101261.81;5058040;28;20056;-84
2021/03/22 06:03:21;;;;;;;26.10;10.25;;;6.50;91.30;;;6.83;75.52;101255.56;5082301;28;19920;-84
2021/03/22 06:05:56;;;;;;;32.30;11.57;;;6.50;91.50;;;6.81;75.32;101259.38;5090338;28;20508;-84
2021/03/22 06:08:38;;;;;;;35.08;9.93;;;6.50;91.70;;;6.79;75.13;101259.53;5085774;28;20685;-84
2021/03/22 06:11:18;;;;;;;33.65;10.07;;;6.50;91.50;;;6.78;75.69;101257.81;5081530;28;20041;-84
2021/03/22 06:13:53;;;;;;;36.25;9.88;;;6.50;91.70;;;6.77;75.92;101263.38;5086140;28;20110;-84
2021/03/22 06:16:25;;;;;;;28.38;9.88;;;6.50;91.70;;;6.80;75.37;101279.34;5086183;28;20044;-84
2021/03/22 06:19:02;;;;;;;30.52;8.65;;;6.50;91.60;;;6.82;75.00;101280.03;5085009;28;20090;-83
2021/03/22 06:21:33;;;;;;;25.55;8.43;;;6.50;91.60;;;6.85;75.32;101269.81;5083316;28;20052;-84
2021/03/22 06:24:02;;;;;;;33.28;9.52;;;6.50;91.70;;;6.86;75.38;101278.75;5081507;28;20056;-82
2021/03/22 06:26:40;;;;;;;37.47;10.20;;;6.60;91.60;;;6.85;75.00;101274.34;5075027;28;20243;-82
2021/03/22 06:29:18;;;;;;;32.53;10.00;;;6.60;91.20;;;6.87;74.81;101285.88;5081299;28;20585;-82
2021/03/22 06:31:46;;;;;;;29.77;9.63;;;6.60;91.00;;;6.85;75.08;101285.16;5081923;28;20059;-82
2021/03/22 06:34:20;;;;;;;30.73;8.95;;;6.50;91.30;;;6.86;75.65;101292.28;5083243;28;20041;-83
2021/03/22 06:36:47;;;;;;;30.73;8.88;;;6.60;91.30;;;6.89;75.40;101297.41;5084003;28;20410;-82
2021/03/22 06:39:20;;;;;;;27.15;8.55;;;6.70;91.10;;;6.90;74.89;101304.53;5086175;28;20048;-82
2021/03/22 06:41:50;;;;;;;28.02;8.77;;;6.70;90.70;;;6.90;74.98;101299.13;5082836;28;20048;-82
2021/03/22 06:44:20;;;;;;;25.45;8.50;;;6.70;90.90;;;6.91;74.49;101303.56;5083681;28;20082;-82
2021/03/22 06:46:57;;;;;;;30.95;8.30;;;6.70;90.40;;;6.87;75.23;101303.97;5080818;28;20040;-82
2021/03/22 06:49:28;;;;;;;27.52;7.90;;;6.70;90.70;;;6.87;75.01;101288.56;5083561;28;20048;-82
2021/03/22 06:52:02;;;;;;;27.63;7.50;;;6.70;90.70;;;6.91;74.67;101295.44;5084219;28;20045;-82
2021/03/22 06:54:38;;;;;;;26.17;7.05;;;6.80;90.60;;;6.95;74.86;101301.41;5085919;28;20060;-83
2021/03/22 06:57:14;;;;;;;25.55;8.00;;;6.80;89.80;;;6.93;74.72;101297.97;5079085;28;20044;-82
2021/03/22 07:00:04;;;;;;;25.30;7.03;;;6.80;90.10;;;6.93;74.52;101297.97;5086885;28;20051;-82
2021/03/22 07:02:42;;;;;;;25.70;6.50;;;6.90;90.10;;;6.94;75.42;101299.69;5082775;28;20491;-83
2021/03/22 07:05:31;;;;;;;25.00;6.93;;;6.90;90.30;;;6.94;75.02;101292.44;5084544;28;20052;-82
2021/03/22 07:08:00;;;;;;;23.08;6.40;;;7.00;90.00;;;6.96;75.33;101300.41;5080160;28;20079;-83
2021/03/22 07:10:31;;;;;;;25.48;6.20;;;7.00;90.00;;;7.00;75.27;101291.84;5083239;28;20066;-82
2021/03/22 07:13:18;;;;;;;25.75;6.55;;;7.10;89.70;;;7.02;74.70;101297.97;5082176;28;20040;-82
2021/03/22 07:15:46;;;;;;;27.10;6.57;;;7.20;89.40;;;7.05;74.39;101297.72;5080107;28;20707;-82
2021/03/22 07:18:22;;;;;;;21.33;6.57;;;7.10;88.80;;;7.05;75.31;101295.00;5082892;28;20936;-82
2021/03/22 07:21:10;;;;;;;22.52;6.65;;;7.10;89.30;;;7.08;74.47;101301.13;5081796;28;20056;-82
2021/03/22 07:24:02;;;;;;;21.05;5.93;;;7.10;89.50;;;7.07;74.76;101302.97;5082854;28;20047;-82
2021/03/22 07:27:06;;;;;;;27.27;6.78;;;7.10;89.80;;;7.08;75.13;101301.97;5082094;28;20417;-83
2021/03/22 07:30:25;;;;;;;25.25;6.43;;;7.10;89.60;;;7.09;75.38;101300.13;5066548;28;20059;-82
2021/03/22 07:33:19;;;;;;;19.55;6.78;;;7.10;89.90;;;7.08;75.04;101295.72;5080648;28;20457;-83
2021/03/22 07:36:21;;;;;;;20.77;6.88;;;7.10;89.30;;;7.13;74.63;101304.25;5084609;28;20059;-84
2021/03/22 07:39:29;;;;;;;19.90;6.18;;;7.10;89.30;;;7.14;75.09;101304.13;5083435;28;20044;-84
2021/03/22 07:42:25;;;;;;;19.60;5.68;;;7.10;89.40;;;7.15;74.60;101308.53;5084911;28;20044;-84
2021/03/22 07:45:23;;;;;;;22.48;7.10;;;7.10;89.70;;;7.15;74.39;101313.94;5086663;28;20401;-84
2021/03/22 07:48:29;;;;;;;16.52;5.82;;;7.10;88.90;;;7.17;73.91;101311.09;5080652;28;20071;-84
2021/03/22 07:51:03;;;;;;;16.90;7.00;;;7.30;88.70;;;7.15;73.91;101319.34;5088669;28;20405;-83
2021/03/22 07:53:40;;;;;;;17.95;5.82;;;7.20;88.10;;;7.17;73.93;101317.34;5082949;28;20094;-84
2021/03/22 07:56:18;;;;;;;13.00;5.25;;;7.20;88.30;;;7.16;74.01;101312.09;5084696;28;20036;-83
2021/03/22 07:59:11;;;;;;;13.98;5.07;;;7.20;88.30;;;7.16;74.49;101309.38;5083506;28;20039;-83
2021/03/22 08:02:07;;;;;;;16.98;5.70;;;7.30;88.40;;;7.19;74.30;101314.50;5084829;28;20052;-83
2021/03/22 08:04:47;;;;;;;18.77;6.40;;;7.40;88.50;;;7.18;74.30;101313.66;5083992;28;20086;-83
2021/03/22 08:07:49;;;;;;;17.23;7.75;;;7.30;88.40;;;7.18;74.09;101313.66;5088053;28;20769;-83
2021/03/22 08:10:28;;;;;;;;;;;7.30;88.00;;;7.17;74.10;101322.78;5086064;28;20044;-83
2021/03/22 08:13:04;;;;;;;17.50;8.43;;;7.30;87.90;;;7.22;73.78;101330.47;5085264;28;19920;-83
2021/03/22 08:15:43;;;;;;;16.85;6.90;;;7.40;88.00;;;7.20;74.17;101330.63;5085463;28;20051;-83
2021/03/22 08:18:29;;;;;;;16.70;6.28;;;7.50;88.30;;;7.22;73.54;101328.63;5085238;28;20107;-83
2021/03/22 08:21:08;;;;;;;14.40;5.53;;;7.40;87.30;;;7.22;73.30;101325.06;5084438;28;20063;-83
2021/03/22 08:23:51;;;;;;;14.35;5.22;;;7.40;86.20;;;7.24;73.00;101331.19;5085523;28;20036;-84
2021/03/22 08:26:26;;;;;;;19.17;5.50;;;7.30;86.90;;;7.24;72.21;101323.91;5085418;28;20390;-83
2021/03/22 08:29:04;;;;;;;15.90;5.88;;;7.30;86.40;;;7.24;72.77;101339.31;5084473;28;20491;-83
2021/03/22 08:31:44;;;;;;;10.90;5.25;;;7.40;86.50;;;7.26;73.20;101340.03;5084246;28;20041;-83
2021/03/22 08:34:19;;;;;;;14.30;5.20;;;7.40;86.90;;;7.28;73.17;101348.84;5082852;28;20644;-83
2021/03/22 08:37:02;;;;;;;16.10;5.25;;;7.40;86.80;;;7.31;73.06;101350.41;5083548;28;20540;-84
2021/03/22 08:39:37;;;;;;;11.82;4.90;;;7.50;86.90;;;7.32;73.67;101338.59;5083883;28;20127;-84
2021/03/22 08:42:14;;;;;;;11.60;4.22;;;7.50;86.90;;;7.32;73.21;101352.13;5083598;28;20051;-83
2021/03/22 08:44:47;;;;;;;10.57;4.20;;;7.70;86.00;;;7.34;73.29;101347.44;5084581;28;20398;-83
2021/03/22 08:47:39;;;;;;;11.43;3.95;;;7.80;85.90;;;7.39;72.09;101345.16;5081424;28;20044;-83
2021/03/22 08:50:12;;;;;;;9.02;3.53;;;7.90;84.60;;;7.44;72.10;101351.84;5084599;28;20052;-82
2021/03/22 08:52:47;;;;;;;11.10;3.95;;;8.00;83.60;;;7.47;72.04;101349.84;5080569;28;20485;-83
2021/03/22 08:55:18;;;;;;;11.02;3.97;;;8.00;84.00;;;7.50;73.08;101355.84;5083460;28;20036;-82
2021/03/22 08:58:00;;;;;;;11.57;3.80;;;8.10;84.60;;;7.53;72.35;101346.56;5085927;28;20516;-83
2021/03/22 09:00:35;;;;;;;8.90;3.25;;;8.10;84.10;;;7.57;71.24;101356.94;5085127;28;20036;-82
2021/03/22 09:03:21;;;;;;;10.57;3.53;;;8.20;82.70;;;7.58;71.40;101353.25;5086017;28;20044;-82
2021/03/22 09:06:10;;;;;;;18.40;4.30;;;8.30;82.50;;;7.59;71.47;101349.53;5083647;28;20040;-82
2021/03/22 09:08:40;;;;;;;10.15;3.45;;;8.20;82.50;;;7.59;70.37;101349.53;5085427;28;20059;-82
2021/03/22 09:11:28;;;;;;;6.95;3.15;;;8.20;81.90;;;7.63;71.48;101360.94;5084352;28;20118;-83
2021/03/22 09:13:58;;;;;;;8.75;3.20;;;8.20;82.90;;;7.63;71.14;101361.81;5085483;28;20099;-82
2021/03/22 09:16:41;;;;;;;9.40;2.75;;;8.20;83.00;;;7.67;71.50;101359.66;5083774;28;20131;-82
2021/03/22 09:19:43;;;;;;;10.65;2.95;;;8.20;82.80;;;7.71;70.16;101358.38;5081031;28;20040;-83
2021/03/22 09:22:46;;;;;;;;;;;8.20;82.10;;;7.72;70.38;101361.94;5084084;28;20505;-83
2021/03/22 09:25:54;;;;;;;12.18;4.38;;;8.10;82.70;;;7.73;70.42;101361.81;5082734;28;19971;-83
2021/03/22 09:29:15;;;;;;;9.75;4.45;;;8.10;82.90;;;7.74;70.46;101357.22;5084561;28;20097;-83
2021/03/22 09:31:45;;;;;;;10.88;4.28;;;8.10;82.20;;;7.75;70.35;101362.50;5081308;28;20044;-83
2021/03/22 09:34:45;;;;;;;13.60;4.10;;;8.10;82.70;;;7.77;70.50;101352.38;5086413;28;20048;-84
2021/03/22 09:37:54;;;;;;;9.13;3.47;;;8.20;82.20;;;7.74;70.22;101363.50;5085272;28;20051;-84
2021/03/22 09:40:50;;;;;;;8.02;3.10;;;8.30;82.30;;;7.79;70.47;101366.63;5084858;28;20075;-85
2021/03/22 09:44:06;;;;;;;9.13;2.33;;;8.40;81.30;;;7.81;70.22;101358.38;5084594;28;20041;-83
2021/03/22 09:46:39;;;;;;;8.30;2.33;;;8.40;81.60;;;7.86;70.73;101360.63;5082888;28;20712;-83
2021/03/22 09:49:27;;;;;;;9.07;3.13;;;8.40;81.50;;;7.88;69.62;101358.63;5084795;28;20123;-83
2021/03/22 09:52:26;;;;;;;7.15;2.28;;;8.50;80.60;;;7.89;69.10;101363.06;5081650;28;20097;-83
2021/03/22 09:54:53;;;;;;;9.13;2.40;;;8.50;79.40;;;7.89;68.75;101366.59;5084281;28;20048;-82
2021/03/22 09:57:43;;;;;;;6.13;2.25;;;8.40;79.20;;;7.90;68.58;101362.91;5090608;28;20047;-82
2021/03/22 10:00:55;;;;;;;7.07;2.50;;;8.50;79.60;;;7.93;68.47;101370.72;5087897;28;20045;-82
2021/03/22 10:04:25;;;;;;;11.20;2.80;;;8.50;80.40;;;7.93;68.65;101367.16;5089419;28;20505;-82
2021/03/22 10:07:17;;;;;;;6.55;2.65;;;8.50;79.40;;;7.95;68.79;101365.16;5076672;28;20513;-82
2021/03/22 10:09:51;;;;;;;7.65;2.63;;;8.60;79.80;;;7.97;69.30;101368.59;5084844;28;20041;-82
2021/03/22 10:12:22;;;;;;;8.07;3.25;;;8.70;80.40;;;8.01;69.50;101373.59;5086072;28;20091;-82
2021/03/22 10:15:23;;;;;;;7.50;2.22;;;8.70;80.20;;;8.03;68.38;101362.56;5079137;28;20078;-82
2021/03/22 10:18:02;;;;;;;6.50;2.03;;;8.80;79.10;;;8.07;68.55;101363.97;5072634;28;20047;-82
2021/03/22 10:20:37;;;;;;;7.70;2.25;;;8.90;78.80;;;8.09;69.15;101364.72;5075369;28;20044;-82
2021/03/22 10:23:17;;;;;;;7.47;1.77;;;9.00;79.20;;;8.11;67.65;101370.84;5075247;28;20040;-82
2021/03/22 10:25:47;;;;;;;6.90;1.67;;;9.00;76.80;;;8.12;67.96;101372.53;5073959;28;20036;-84
2021/03/22 10:28:20;;;;;;;3.78;1.10;;;9.00;77.00;;;8.14;65.86;101375.94;5069269;28;20118;-82
2021/03/22 10:30:58;;;;;;;3.47;1.27;;;9.00;74.20;;;8.17;66.04;101366.69;5062240;28;20049;-82
2021/03/22 10:33:26;;;;;;;3.90;1.10;;;9.00;75.30;;;8.19;66.00;101362.81;5063310;28;20067;-82
2021/03/22 10:35:56;;;;;;;5.65;1.20;;;9.10;74.40;;;8.23;65.71;101376.94;5072648;28;20046;-82
2021/03/22 10:38:33;;;;;;;5.28;1.40;;;9.20;73.80;;;8.25;64.76;101372.22;5073049;28;20097;-82
2021/03/22 10:41:03;;;;;;;4.80;1.58;;;9.20;72.50;;;8.26;64.27;101370.34;5073055;28;20102;-82
2021/03/22 10:43:38;;;;;;;10.18;2.00;;;9.10;73.20;;;8.27;64.68;101372.06;5073308;28;20311;-82
2021/03/22 10:46:18;;;;;;;6.53;1.85;;;9.10;73.90;;;8.28;65.09;101371.94;5074366;28;20048;-82
2021/03/22 10:48:46;;;;;;;6.10;1.67;;;9.00;74.70;;;8.30;65.34;101371.75;5073916;28;20483;-82
2021/03/22 10:51:18;;;;;;;7.90;1.75;;;9.00;75.10;;;8.30;65.17;101363.63;5074241;28;20127;-82
2021/03/22 10:53:59;;;;;;;;;;;9.00;75.60;;;8.27;65.73;101363.94;5073610;28;20461;-82
2021/03/22 10:56:33;;;;;;;6.47;2.10;;;9.00;75.40;;;8.26;65.51;101370.34;5068732;28;19946;-81
2021/03/22 10:59:07;;;;;;;4.55;1.80;;;9.00;75.70;;;8.28;65.71;101365.63;5073596;28;20231;-81